createdAt,value
2023-02-12T00:09:36.310Z,-2.38
2023-02-12T00:19:36.347Z,-2.38
2023-02-12T00:29:36.797Z,-2.38
2023-02-12T00:39:36.849Z,-2.38
2023-02-12T00:49:37.155Z,-2.38
2023-02-12T00:59:37.191Z,-2.22
2023-02-12T01:09:37.526Z,-2.06
2023-02-12T01:19:37.563Z,-2.06
2023-02-12T01:29:37.907Z,-2.38
2023-02-12T01:39:38.006Z,-1.91
2023-02-12T01:49:38.264Z,-2.74
2023-02-12T01:59:38.288Z,-2.06
2023-02-12T02:09:38.738Z,-2.06
2023-02-12T02:19:38.767Z,-3.05
2023-02-12T02:29:40.408Z,-2.89
2023-02-12T02:39:39.289Z,-1.91
2023-02-12T02:49:39.468Z,-2.74
2023-02-12T02:59:39.546Z,-2.74
2023-02-12T03:09:39.957Z,-2.74
2023-02-12T03:19:40.057Z,-2.74
2023-02-12T03:29:40.209Z,-2.58
2023-02-12T03:39:40.239Z,-2.74
2023-02-12T03:49:40.698Z,-2.74
2023-02-12T03:59:40.724Z,-2.74
2023-02-12T04:09:42.073Z,-2.74
2023-02-12T04:19:41.144Z,-2.74
2023-02-12T04:29:41.530Z,-2.89
2023-02-12T04:39:41.569Z,-2.74
2023-02-12T04:49:42.014Z,-2.74
2023-02-12T04:59:42.054Z,-2.89
2023-02-12T05:09:42.477Z,-2.89
2023-02-12T05:19:42.547Z,-3.57
2023-02-12T05:29:42.955Z,-3.57
2023-02-12T05:39:42.984Z,-3.57
2023-02-12T05:49:43.318Z,-2.58
2023-02-12T05:59:43.346Z,-2.74
2023-02-12T06:09:44.711Z,-3.57
2023-02-12T06:19:43.731Z,-3.42
2023-02-12T06:29:44.084Z,-2.74
2023-02-12T06:39:44.124Z,-3.05
2023-02-12T06:49:44.442Z,-2.22
2023-02-12T06:59:44.469Z,-3.05
2023-02-12T07:09:45.105Z,-2.38
2023-02-12T07:19:44.962Z,-2.71
2023-02-12T07:29:46.228Z,-2.71
2023-02-12T07:39:45.468Z,-3.21
2023-02-12T07:49:48.208Z,-3.21
2023-02-12T07:59:45.885Z,-2.71
2023-02-12T08:09:46.244Z,-2.54
2023-02-12T08:19:46.272Z,-2.71
2023-02-12T08:29:46.621Z,-2.24
2023-02-12T08:39:46.655Z,-1.61
2023-02-12T08:49:47.006Z,-2.34
2023-02-12T08:59:47.061Z,-1.56
2023-02-12T09:09:49.639Z,-1.18
2023-02-12T09:19:47.663Z,-1.99
2023-02-12T09:29:47.700Z,-1.25
2023-02-12T09:39:50.880Z,-1.68
2023-02-12T09:49:48.286Z,-2.13
2023-02-12T09:59:48.315Z,-1.19
2023-02-12T10:09:48.654Z,-0.48
2023-02-12T10:19:48.865Z,-1.19
2023-02-12T10:29:49.937Z,-0.75
2023-02-12T10:39:49.175Z,-1.27
2023-02-12T10:49:49.608Z,-1.27
2023-02-12T10:59:49.491Z,-0.08
2023-02-12T11:09:50.023Z,-0.88
2023-02-12T11:19:49.920Z,-0.34
2023-02-12T11:29:50.260Z,-0.24
2023-02-12T11:39:50.987Z,-0.24
2023-02-12T11:49:56.378Z,0.11
2023-02-12T11:59:50.704Z,0.11
2023-02-12T12:09:51.158Z,-0.49
2023-02-12T12:19:51.243Z,0.11
2023-02-12T12:29:51.244Z,0.40
2023-02-12T12:39:51.520Z,0.40
2023-02-12T12:49:51.754Z,0.72
2023-02-12T12:59:51.713Z,1.64
2023-02-12T13:09:52.947Z,1.02
2023-02-12T13:19:51.818Z,0.70
2023-02-12T13:29:52.215Z,1.02
2023-02-12T13:39:52.404Z,0.70
2023-02-12T13:49:55.873Z,0.70
2023-02-12T13:59:52.732Z,1.02
2023-02-12T14:09:53.125Z,1.60
2023-02-12T14:19:53.049Z,2.24
2023-02-12T14:29:53.579Z,1.60
2023-02-12T14:39:53.668Z,0.72
2023-02-12T14:49:53.893Z,1.32
2023-02-12T14:59:53.857Z,0.96
2023-02-12T15:09:53.809Z,1.51
2023-02-12T15:19:53.913Z,1.11
2023-02-12T15:29:54.264Z,1.36
2023-02-12T15:39:54.410Z,0.68
2023-02-12T15:49:56.527Z,0.68
2023-02-12T15:59:54.691Z,0.93
2023-02-12T16:09:54.704Z,1.17
2023-02-12T16:19:54.741Z,1.41
2023-02-12T16:29:55.347Z,0.47
2023-02-12T16:39:55.347Z,0.93
2023-02-12T16:49:55.617Z,1.15
2023-02-12T16:59:55.352Z,0.65
2023-02-12T17:09:55.844Z,1.08
2023-02-12T17:19:56.081Z,-0.09
2023-02-12T17:30:00.617Z,0.12
2023-02-12T17:39:56.469Z,-0.22
2023-02-12T17:49:56.667Z,-0.02
2023-02-12T17:59:56.876Z,0.17
2023-02-12T18:09:57.194Z,-0.02
2023-02-12T18:19:57.116Z,0.17
2023-02-12T18:29:57.583Z,-0.60
2023-02-12T18:39:57.640Z,-0.41
2023-02-12T18:49:58.655Z,0.15
2023-02-12T18:59:58.113Z,-0.03
2023-02-12T19:09:58.239Z,-0.46
2023-02-12T19:20:11.106Z,-0.46
2023-02-12T19:29:58.345Z,-1.09
2023-02-12T19:39:58.795Z,-0.75
2023-02-12T19:49:58.843Z,-0.92
2023-02-12T20:00:03.379Z,-0.92
2023-02-12T20:09:59.280Z,-0.92
2023-02-12T20:19:59.537Z,-0.92
2023-02-12T20:29:59.767Z,-1.09
2023-02-12T20:39:59.954Z,-0.75
2023-02-12T20:50:00.188Z,-1.73
2023-02-12T21:00:00.423Z,-1.56
2023-02-12T21:10:00.663Z,-1.73
2023-02-12T21:20:00.868Z,-1.73
2023-02-12T21:30:00.969Z,-1.56
2023-02-12T21:40:01.163Z,-1.56
2023-02-12T21:50:01.269Z,-1.56
2023-02-12T22:00:01.402Z,-1.56
2023-02-12T22:10:01.458Z,-1.56
2023-02-12T22:20:01.737Z,-2.54
2023-02-12T22:30:01.775Z,-2.38
2023-02-12T22:40:02.104Z,-2.38
2023-02-12T22:50:02.159Z,-2.38
2023-02-12T23:00:02.485Z,-2.38
2023-02-12T23:10:02.623Z,-2.06
2023-02-12T23:20:02.634Z,-1.91
2023-02-12T23:30:02.689Z,-2.06
2023-02-12T23:40:03.958Z,-1.91
2023-02-12T23:50:03.214Z,-1.60
